sensor_id;sensor_type;location;lat;lon;timestamp;P1;durP1;ratioP1;P2;durP2;ratioP2
41568;SDS011;27283;52.504;13.358;2023-04-25T00:01:02;7.95;;;4.20;;
41568;SDS011;27283;52.504;13.358;2023-04-25T00:03:38;9.20;;;3.40;;
41568;SDS011;27283;52.504;13.358;2023-04-25T00:06:14;5.68;;;3.60;;
41568;SDS011;27283;52.504;13.358;2023-04-25T00:08:50;7.15;;;3.47;;
41568;SDS011;27283;52.504;13.358;2023-04-25T00:11:29;11.07;;;3.40;;
41568;SDS011;27283;52.504;13.358;2023-04-25T00:14:02;6.72;;;2.90;;
41568;SDS011;27283;52.504;13.358;2023-04-25T00:16:39;8.48;;;3.28;;
41568;SDS011;27283;52.504;13.358;2023-04-25T00:19:13;8.38;;;3.40;;
41568;SDS011;27283;52.504;13.358;2023-04-25T00:21:49;6.07;;;3.25;;
41568;SDS011;27283;52.504;13.358;2023-04-25T00:24:23;9.40;;;3.40;;
41568;SDS011;27283;52.504;13.358;2023-04-25T00:27:00;7.20;;;3.10;;
41568;SDS011;27283;52.504;13.358;2023-04-25T00:29:33;8.32;;;2.97;;
41568;SDS011;27283;52.504;13.358;2023-04-25T00:32:06;7.93;;;3.10;;
41568;SDS011;27283;52.504;13.358;2023-04-25T00:34:38;9.55;;;3.50;;
41568;SDS011;27283;52.504;13.358;2023-04-25T00:37:10;6.45;;;2.97;;
41568;SDS011;27283;52.504;13.358;2023-04-25T00:39:42;7.85;;;3.50;;
41568;SDS011;27283;52.504;13.358;2023-04-25T00:42:17;9.82;;;3.45;;
41568;SDS011;27283;52.504;13.358;2023-04-25T00:44:50;9.75;;;3.38;;
41568;SDS011;27283;52.504;13.358;2023-04-25T00:47:24;7.60;;;3.47;;
41568;SDS011;27283;52.504;13.358;2023-04-25T00:49:56;8.55;;;3.50;;
41568;SDS011;27283;52.504;13.358;2023-04-25T00:52:29;8.80;;;3.63;;
41568;SDS011;27283;52.504;13.358;2023-04-25T00:55:01;9.23;;;3.38;;
41568;SDS011;27283;52.504;13.358;2023-04-25T00:57:36;15.02;;;3.80;;
41568;SDS011;27283;52.504;13.358;2023-04-25T01:00:10;11.38;;;4.13;;
41568;SDS011;27283;52.504;13.358;2023-04-25T01:02:43;12.57;;;3.60;;
41568;SDS011;27283;52.504;13.358;2023-04-25T01:05:17;8.23;;;3.75;;
41568;SDS011;27283;52.504;13.358;2023-04-25T01:09:17;8.75;;;4.15;;
41568;SDS011;27283;52.504;13.358;2023-04-25T01:12:44;7.93;;;4.03;;
41568;SDS011;27283;52.504;13.358;2023-04-25T01:15:16;15.85;;;3.78;;
41568;SDS011;27283;52.504;13.358;2023-04-25T01:17:49;11.80;;;4.20;;
41568;SDS011;27283;52.504;13.358;2023-04-25T01:20:26;12.20;;;3.83;;
41568;SDS011;27283;52.504;13.358;2023-04-25T01:23:20;11.50;;;3.88;;
41568;SDS011;27283;52.504;13.358;2023-04-25T01:25:53;11.90;;;4.20;;
41568;SDS011;27283;52.504;13.358;2023-04-25T01:28:25;12.73;;;3.60;;
41568;SDS011;27283;52.504;13.358;2023-04-25T01:30:58;13.52;;;4.80;;
41568;SDS011;27283;52.504;13.358;2023-04-25T01:33:30;9.32;;;3.97;;
41568;SDS011;27283;52.504;13.358;2023-04-25T01:36:03;11.35;;;4.32;;
41568;SDS011;27283;52.504;13.358;2023-04-25T01:38:38;11.40;;;4.00;;
41568;SDS011;27283;52.504;13.358;2023-04-25T01:41:12;13.07;;;4.63;;
41568;SDS011;27283;52.504;13.358;2023-04-25T01:43:45;10.93;;;4.57;;
41568;SDS011;27283;52.504;13.358;2023-04-25T01:46:17;8.93;;;3.72;;
41568;SDS011;27283;52.504;13.358;2023-04-25T01:48:49;10.25;;;4.00;;
41568;SDS011;27283;52.504;13.358;2023-04-25T01:54:09;11.27;;;4.18;;
41568;SDS011;27283;52.504;13.358;2023-04-25T01:56:49;11.93;;;4.45;;
41568;SDS011;27283;52.504;13.358;2023-04-25T01:59:22;9.88;;;4.30;;
41568;SDS011;27283;52.504;13.358;2023-04-25T02:01:57;10.57;;;4.60;;
41568;SDS011;27283;52.504;13.358;2023-04-25T02:04:32;14.60;;;4.88;;
41568;SDS011;27283;52.504;13.358;2023-04-25T02:07:07;11.85;;;4.13;;
41568;SDS011;27283;52.504;13.358;2023-04-25T02:09:42;12.55;;;4.40;;
41568;SDS011;27283;52.504;13.358;2023-04-25T02:12:15;13.30;;;4.88;;
41568;SDS011;27283;52.504;13.358;2023-04-25T02:14:48;12.60;;;4.97;;
41568;SDS011;27283;52.504;13.358;2023-04-25T02:17:25;12.00;;;4.47;;
41568;SDS011;27283;52.504;13.358;2023-04-25T02:19:57;13.73;;;5.15;;
41568;SDS011;27283;52.504;13.358;2023-04-25T02:22:31;13.38;;;4.93;;
41568;SDS011;27283;52.504;13.358;2023-04-25T02:25:08;15.23;;;4.82;;
41568;SDS011;27283;52.504;13.358;2023-04-25T02:27:44;14.48;;;4.57;;
41568;SDS011;27283;52.504;13.358;2023-04-25T02:30:15;12.68;;;4.68;;
41568;SDS011;27283;52.504;13.358;2023-04-25T02:32:50;10.77;;;5.07;;
41568;SDS011;27283;52.504;13.358;2023-04-25T02:35:22;12.82;;;4.93;;
41568;SDS011;27283;52.504;13.358;2023-04-25T02:37:55;10.77;;;4.82;;
41568;SDS011;27283;52.504;13.358;2023-04-25T02:40:30;11.25;;;4.72;;
41568;SDS011;27283;52.504;13.358;2023-04-25T02:43:03;14.13;;;5.07;;
41568;SDS011;27283;52.504;13.358;2023-04-25T02:45:35;11.80;;;5.40;;
41568;SDS011;27283;52.504;13.358;2023-04-25T02:48:10;12.10;;;5.00;;
41568;SDS011;27283;52.504;13.358;2023-04-25T02:50:42;13.98;;;5.70;;
41568;SDS011;27283;52.504;13.358;2023-04-25T02:53:18;14.30;;;5.80;;
41568;SDS011;27283;52.504;13.358;2023-04-25T02:55:52;16.80;;;5.30;;
41568;SDS011;27283;52.504;13.358;2023-04-25T02:58:30;13.23;;;5.50;;
41568;SDS011;27283;52.504;13.358;2023-04-25T03:01:04;14.38;;;5.35;;
41568;SDS011;27283;52.504;13.358;2023-04-25T03:03:36;14.65;;;5.47;;
41568;SDS011;27283;52.504;13.358;2023-04-25T03:06:08;15.52;;;5.80;;
41568;SDS011;27283;52.504;13.358;2023-04-25T03:08:40;14.82;;;5.70;;
41568;SDS011;27283;52.504;13.358;2023-04-25T03:11:14;15.35;;;5.22;;
41568;SDS011;27283;52.504;13.358;2023-04-25T03:13:49;14.35;;;5.35;;
41568;SDS011;27283;52.504;13.358;2023-04-25T03:16:21;15.27;;;5.93;;
41568;SDS011;27283;52.504;13.358;2023-04-25T03:18:56;15.75;;;5.90;;
41568;SDS011;27283;52.504;13.358;2023-04-25T03:21:35;18.08;;;6.07;;
41568;SDS011;27283;52.504;13.358;2023-04-25T03:24:09;14.32;;;5.72;;
41568;SDS011;27283;52.504;13.358;2023-04-25T03:26:44;17.15;;;5.70;;
41568;SDS011;27283;52.504;13.358;2023-04-25T03:29:16;15.50;;;6.03;;
41568;SDS011;27283;52.504;13.358;2023-04-25T03:31:52;14.90;;;6.20;;
41568;SDS011;27283;52.504;13.358;2023-04-25T03:34:24;15.07;;;6.25;;
41568;SDS011;27283;52.504;13.358;2023-04-25T03:36:57;13.70;;;6.35;;
41568;SDS011;27283;52.504;13.358;2023-04-25T03:39:33;12.85;;;5.30;;
41568;SDS011;27283;52.504;13.358;2023-04-25T03:42:08;20.67;;;6.20;;
41568;SDS011;27283;52.504;13.358;2023-04-25T03:44:42;11.95;;;6.20;;
41568;SDS011;27283;52.504;13.358;2023-04-25T03:47:14;15.82;;;6.53;;
41568;SDS011;27283;52.504;13.358;2023-04-25T03:49:46;15.43;;;6.30;;
41568;SDS011;27283;52.504;13.358;2023-04-25T03:52:21;14.55;;;5.70;;
41568;SDS011;27283;52.504;13.358;2023-04-25T03:54:54;17.17;;;6.00;;
41568;SDS011;27283;52.504;13.358;2023-04-25T03:57:29;17.30;;;5.95;;
41568;SDS011;27283;52.504;13.358;2023-04-25T04:00:01;14.23;;;5.43;;
41568;SDS011;27283;52.504;13.358;2023-04-25T04:02:38;14.18;;;6.13;;
41568;SDS011;27283;52.504;13.358;2023-04-25T04:05:13;17.85;;;5.88;;
41568;SDS011;27283;52.504;13.358;2023-04-25T04:07:44;13.02;;;5.75;;
41568;SDS011;27283;52.504;13.358;2023-04-25T04:10:18;15.90;;;6.00;;
41568;SDS011;27283;52.504;13.358;2023-04-25T04:12:53;16.38;;;6.00;;
41568;SDS011;27283;52.504;13.358;2023-04-25T04:15:25;17.35;;;5.95;;
41568;SDS011;27283;52.504;13.358;2023-04-25T04:17:57;14.48;;;5.38;;
41568;SDS011;27283;52.504;13.358;2023-04-25T04:20:31;16.27;;;5.95;;
41568;SDS011;27283;52.504;13.358;2023-04-25T04:23:06;15.63;;;5.60;;
41568;SDS011;27283;52.504;13.358;2023-04-25T04:25:39;14.98;;;5.07;;
41568;SDS011;27283;52.504;13.358;2023-04-25T04:28:14;13.45;;;5.50;;
41568;SDS011;27283;52.504;13.358;2023-04-25T04:30:49;19.02;;;6.43;;
41568;SDS011;27283;52.504;13.358;2023-04-25T04:33:22;15.80;;;5.95;;
41568;SDS011;27283;52.504;13.358;2023-04-25T04:35:54;15.88;;;6.20;;
41568;SDS011;27283;52.504;13.358;2023-04-25T04:38:26;14.25;;;5.85;;
41568;SDS011;27283;52.504;13.358;2023-04-25T04:40:58;15.88;;;5.72;;
41568;SDS011;27283;52.504;13.358;2023-04-25T04:43:35;14.00;;;5.45;;
41568;SDS011;27283;52.504;13.358;2023-04-25T04:46:08;12.93;;;6.00;;
41568;SDS011;27283;52.504;13.358;2023-04-25T04:48:47;13.63;;;5.82;;
41568;SDS011;27283;52.504;13.358;2023-04-25T04:51:19;14.90;;;5.55;;
41568;SDS011;27283;52.504;13.358;2023-04-25T04:53:51;15.57;;;5.68;;
41568;SDS011;27283;52.504;13.358;2023-04-25T04:56:27;14.35;;;5.25;;
41568;SDS011;27283;52.504;13.358;2023-04-25T04:59:02;15.20;;;5.47;;
41568;SDS011;27283;52.504;13.358;2023-04-25T05:01:36;10.30;;;5.25;;
41568;SDS011;27283;52.504;13.358;2023-04-25T05:04:08;17.90;;;5.38;;
41568;SDS011;27283;52.504;13.358;2023-04-25T05:06:41;13.40;;;5.75;;
41568;SDS011;27283;52.504;13.358;2023-04-25T05:09:16;14.38;;;5.90;;
41568;SDS011;27283;52.504;13.358;2023-04-25T05:11:48;12.43;;;5.22;;
41568;SDS011;27283;52.504;13.358;2023-04-25T05:14:22;13.75;;;5.75;;
41568;SDS011;27283;52.504;13.358;2023-04-25T05:16:55;11.88;;;5.53;;
41568;SDS011;27283;52.504;13.358;2023-04-25T05:19:27;17.83;;;5.90;;
41568;SDS011;27283;52.504;13.358;2023-04-25T05:21:59;12.88;;;5.55;;
41568;SDS011;27283;52.504;13.358;2023-04-25T05:24:31;17.77;;;5.47;;
41568;SDS011;27283;52.504;13.358;2023-04-25T05:27:04;13.48;;;5.45;;
41568;SDS011;27283;52.504;13.358;2023-04-25T05:29:38;13.00;;;5.18;;
41568;SDS011;27283;52.504;13.358;2023-04-25T05:32:10;14.13;;;5.03;;
41568;SDS011;27283;52.504;13.358;2023-04-25T05:34:42;11.57;;;4.65;;
41568;SDS011;27283;52.504;13.358;2023-04-25T05:37:14;15.80;;;5.15;;
41568;SDS011;27283;52.504;13.358;2023-04-25T05:39:46;12.48;;;5.45;;
41568;SDS011;27283;52.504;13.358;2023-04-25T05:42:20;16.20;;;5.63;;
41568;SDS011;27283;52.504;13.358;2023-04-25T05:44:54;14.65;;;5.93;;
41568;SDS011;27283;52.504;13.358;2023-04-25T05:47:26;16.50;;;6.78;;
41568;SDS011;27283;52.504;13.358;2023-04-25T05:49:59;18.33;;;6.60;;
41568;SDS011;27283;52.504;13.358;2023-04-25T05:52:32;14.77;;;6.10;;
41568;SDS011;27283;52.504;13.358;2023-04-25T05:55:03;18.20;;;6.38;;
41568;SDS011;27283;52.504;13.358;2023-04-25T05:57:36;15.80;;;6.03;;
41568;SDS011;27283;52.504;13.358;2023-04-25T06:00:13;13.55;;;6.10;;
41568;SDS011;27283;52.504;13.358;2023-04-25T06:02:47;17.67;;;7.25;;
41568;SDS011;27283;52.504;13.358;2023-04-25T06:05:19;16.90;;;7.38;;
41568;SDS011;27283;52.504;13.358;2023-04-25T06:07:52;16.50;;;7.47;;
41568;SDS011;27283;52.504;13.358;2023-04-25T06:10:23;18.25;;;7.00;;
41568;SDS011;27283;52.504;13.358;2023-04-25T06:12:55;19.02;;;7.97;;
41568;SDS011;27283;52.504;13.358;2023-04-25T06:15:30;16.80;;;7.65;;
41568;SDS011;27283;52.504;13.358;2023-04-25T06:18:04;14.20;;;7.50;;
41568;SDS011;27283;52.504;13.358;2023-04-25T06:20:36;16.38;;;7.10;;
41568;SDS011;27283;52.504;13.358;2023-04-25T06:23:07;16.27;;;7.38;;
41568;SDS011;27283;52.504;13.358;2023-04-25T06:25:39;19.20;;;7.32;;
41568;SDS011;27283;52.504;13.358;2023-04-25T06:28:10;19.08;;;7.35;;
41568;SDS011;27283;52.504;13.358;2023-04-25T06:30:44;17.55;;;7.95;;
41568;SDS011;27283;52.504;13.358;2023-04-25T06:33:16;17.70;;;7.32;;
41568;SDS011;27283;52.504;13.358;2023-04-25T06:35:48;13.32;;;6.80;;
41568;SDS011;27283;52.504;13.358;2023-04-25T06:38:20;21.50;;;7.63;;
41568;SDS011;27283;52.504;13.358;2023-04-25T06:40:51;19.77;;;7.50;;
41568;SDS011;27283;52.504;13.358;2023-04-25T06:43:26;22.83;;;7.00;;
41568;SDS011;27283;52.504;13.358;2023-04-25T06:46:03;17.95;;;7.68;;
41568;SDS011;27283;52.504;13.358;2023-04-25T06:48:36;17.40;;;7.60;;
41568;SDS011;27283;52.504;13.358;2023-04-25T06:51:07;21.05;;;7.30;;
41568;SDS011;27283;52.504;13.358;2023-04-25T06:53:47;17.92;;;7.32;;
41568;SDS011;27283;52.504;13.358;2023-04-25T06:56:20;23.25;;;7.60;;
41568;SDS011;27283;52.504;13.358;2023-04-25T06:58:55;17.70;;;7.65;;
41568;SDS011;27283;52.504;13.358;2023-04-25T07:01:31;15.85;;;7.18;;
41568;SDS011;27283;52.504;13.358;2023-04-25T07:04:04;18.20;;;7.32;;
41568;SDS011;27283;52.504;13.358;2023-04-25T07:06:36;18.65;;;7.38;;
41568;SDS011;27283;52.504;13.358;2023-04-25T07:09:11;15.55;;;6.47;;
41568;SDS011;27283;52.504;13.358;2023-04-25T07:11:43;14.80;;;6.95;;
41568;SDS011;27283;52.504;13.358;2023-04-25T07:14:16;13.50;;;6.18;;
41568;SDS011;27283;52.504;13.358;2023-04-25T07:16:51;15.48;;;7.07;;
41568;SDS011;27283;52.504;13.358;2023-04-25T07:19:27;12.88;;;6.22;;
41568;SDS011;27283;52.504;13.358;2023-04-25T07:21:59;14.10;;;6.38;;
41568;SDS011;27283;52.504;13.358;2023-04-25T07:24:32;17.15;;;6.70;;
41568;SDS011;27283;52.504;13.358;2023-04-25T07:27:04;15.32;;;5.97;;
41568;SDS011;27283;52.504;13.358;2023-04-25T07:29:37;17.25;;;6.07;;
41568;SDS011;27283;52.504;13.358;2023-04-25T07:32:13;15.80;;;6.35;;
41568;SDS011;27283;52.504;13.358;2023-04-25T07:34:46;15.88;;;5.63;;
41568;SDS011;27283;52.504;13.358;2023-04-25T07:37:19;16.88;;;6.30;;
41568;SDS011;27283;52.504;13.358;2023-04-25T07:39:52;15.75;;;5.80;;
41568;SDS011;27283;52.504;13.358;2023-04-25T07:42:28;17.65;;;6.30;;
41568;SDS011;27283;52.504;13.358;2023-04-25T07:45:08;20.35;;;6.15;;
41568;SDS011;27283;52.504;13.358;2023-04-25T07:47:43;30.88;;;6.10;;
41568;SDS011;27283;52.504;13.358;2023-04-25T07:50:17;29.25;;;5.82;;
41568;SDS011;27283;52.504;13.358;2023-04-25T07:52:49;21.70;;;6.00;;
41568;SDS011;27283;52.504;13.358;2023-04-25T07:55:23;28.85;;;5.82;;
41568;SDS011;27283;52.504;13.358;2023-04-25T07:57:56;27.05;;;5.28;;
41568;SDS011;27283;52.504;13.358;2023-04-25T08:03:15;24.30;;;5.63;;
41568;SDS011;27283;52.504;13.358;2023-04-25T08:05:48;28.23;;;5.53;;
41568;SDS011;27283;52.504;13.358;2023-04-25T08:08:21;30.30;;;5.90;;
41568;SDS011;27283;52.504;13.358;2023-04-25T08:10:55;26.65;;;5.40;;
41568;SDS011;27283;52.504;13.358;2023-04-25T08:13:28;21.42;;;4.80;;
41568;SDS011;27283;52.504;13.358;2023-04-25T08:16:18;21.73;;;5.40;;
41568;SDS011;27283;52.504;13.358;2023-04-25T08:18:57;22.58;;;5.20;;
41568;SDS011;27283;52.504;13.358;2023-04-25T08:21:31;29.33;;;5.70;;
41568;SDS011;27283;52.504;13.358;2023-04-25T08:24:07;31.80;;;5.30;;
41568;SDS011;27283;52.504;13.358;2023-04-25T08:26:40;23.75;;;5.00;;
41568;SDS011;27283;52.504;13.358;2023-04-25T08:29:18;24.90;;;5.03;;
41568;SDS011;27283;52.504;13.358;2023-04-25T08:31:53;29.65;;;5.40;;
41568;SDS011;27283;52.504;13.358;2023-04-25T08:34:28;23.77;;;4.72;;
41568;SDS011;27283;52.504;13.358;2023-04-25T08:37:01;28.98;;;4.95;;
41568;SDS011;27283;52.504;13.358;2023-04-25T08:39:34;30.20;;;4.93;;
41568;SDS011;27283;52.504;13.358;2023-04-25T08:42:07;25.63;;;4.82;;
41568;SDS011;27283;52.504;13.358;2023-04-25T08:44:40;23.52;;;4.70;;
41568;SDS011;27283;52.504;13.358;2023-04-25T08:47:18;22.08;;;4.38;;
41568;SDS011;27283;52.504;13.358;2023-04-25T08:49:56;20.10;;;4.13;;
41568;SDS011;27283;52.504;13.358;2023-04-25T08:52:35;22.13;;;4.72;;
41568;SDS011;27283;52.504;13.358;2023-04-25T08:55:10;21.60;;;4.00;;
41568;SDS011;27283;52.504;13.358;2023-04-25T08:57:46;21.23;;;4.47;;
41568;SDS011;27283;52.504;13.358;2023-04-25T09:00:19;18.92;;;4.18;;
41568;SDS011;27283;52.504;13.358;2023-04-25T09:02:57;20.08;;;4.20;;
41568;SDS011;27283;52.504;13.358;2023-04-25T09:05:35;19.23;;;4.30;;
41568;SDS011;27283;52.504;13.358;2023-04-25T09:08:09;19.98;;;3.70;;
41568;SDS011;27283;52.504;13.358;2023-04-25T09:10:42;22.67;;;4.47;;
41568;SDS011;27283;52.504;13.358;2023-04-25T09:13:17;15.95;;;3.65;;
41568;SDS011;27283;52.504;13.358;2023-04-25T09:16:00;20.00;;;4.03;;
41568;SDS011;27283;52.504;13.358;2023-04-25T09:18:34;19.83;;;3.70;;
41568;SDS011;27283;52.504;13.358;2023-04-25T14:25:41;7.63;;;2.35;;
41568;SDS011;27283;52.504;13.358;2023-04-25T14:28:20;7.30;;;2.15;;
41568;SDS011;27283;52.504;13.358;2023-04-25T14:30:53;8.25;;;2.08;;
41568;SDS011;27283;52.504;13.358;2023-04-25T14:33:26;8.05;;;2.17;;
41568;SDS011;27283;52.504;13.358;2023-04-25T14:36:00;10.77;;;2.05;;
41568;SDS011;27283;52.504;13.358;2023-04-25T14:38:34;6.00;;;2.10;;
41568;SDS011;27283;52.504;13.358;2023-04-25T14:41:09;10.15;;;2.15;;
41568;SDS011;27283;52.504;13.358;2023-04-25T14:43:43;7.20;;;1.75;;
41568;SDS011;27283;52.504;13.358;2023-04-25T14:46:18;6.10;;;2.30;;
41568;SDS011;27283;52.504;13.358;2023-04-25T14:48:56;8.43;;;2.08;;
41568;SDS011;27283;52.504;13.358;2023-04-25T14:51:29;8.32;;;2.10;;
41568;SDS011;27283;52.504;13.358;2023-04-25T14:54:03;9.77;;;2.65;;
41568;SDS011;27283;52.504;13.358;2023-04-25T14:56:39;12.07;;;2.25;;
41568;SDS011;27283;52.504;13.358;2023-04-25T14:59:12;10.95;;;2.40;;
41568;SDS011;27283;52.504;13.358;2023-04-25T15:01:49;10.95;;;2.45;;
41568;SDS011;27283;52.504;13.358;2023-04-25T15:04:27;9.02;;;2.50;;
41568;SDS011;27283;52.504;13.358;2023-04-25T15:07:00;10.10;;;2.65;;
41568;SDS011;27283;52.504;13.358;2023-04-25T15:09:35;7.95;;;2.28;;
41568;SDS011;27283;52.504;13.358;2023-04-25T15:12:13;9.70;;;2.40;;
41568;SDS011;27283;52.504;13.358;2023-04-25T15:14:46;14.70;;;2.60;;
41568;SDS011;27283;52.504;13.358;2023-04-25T15:17:18;8.68;;;2.30;;
41568;SDS011;27283;52.504;13.358;2023-04-25T15:19:52;11.25;;;2.40;;
41568;SDS011;27283;52.504;13.358;2023-04-25T15:22:26;15.25;;;2.20;;
41568;SDS011;27283;52.504;13.358;2023-04-25T15:24:59;5.80;;;2.22;;
41568;SDS011;27283;52.504;13.358;2023-04-25T15:27:35;11.25;;;2.25;;
41568;SDS011;27283;52.504;13.358;2023-04-25T15:30:11;7.60;;;1.65;;
41568;SDS011;27283;52.504;13.358;2023-04-25T15:32:45;9.02;;;1.90;;
41568;SDS011;27283;52.504;13.358;2023-04-25T15:35:34;7.85;;;1.85;;
41568;SDS011;27283;52.504;13.358;2023-04-25T15:38:07;7.65;;;1.77;;
41568;SDS011;27283;52.504;13.358;2023-04-25T15:40:41;8.88;;;1.90;;
41568;SDS011;27283;52.504;13.358;2023-04-25T15:43:19;4.72;;;1.73;;
41568;SDS011;27283;52.504;13.358;2023-04-25T15:45:54;8.30;;;2.00;;
41568;SDS011;27283;52.504;13.358;2023-04-25T15:48:27;4.32;;;1.65;;
41568;SDS011;27283;52.504;13.358;2023-04-25T15:51:00;7.72;;;1.85;;
41568;SDS011;27283;52.504;13.358;2023-04-25T15:53:33;7.55;;;1.83;;
41568;SDS011;27283;52.504;13.358;2023-04-25T15:56:10;7.55;;;1.55;;
41568;SDS011;27283;52.504;13.358;2023-04-25T15:58:46;5.70;;;1.83;;
41568;SDS011;27283;52.504;13.358;2023-04-25T16:01:38;11.77;;;1.83;;
41568;SDS011;27283;52.504;13.358;2023-04-25T16:04:16;9.05;;;2.42;;
41568;SDS011;27283;52.504;13.358;2023-04-25T16:07:15;8.05;;;1.90;;
41568;SDS011;27283;52.504;13.358;2023-04-25T16:09:49;9.93;;;2.15;;
41568;SDS011;27283;52.504;13.358;2023-04-25T16:12:22;8.30;;;1.85;;
41568;SDS011;27283;52.504;13.358;2023-04-25T16:14:59;6.32;;;1.55;;
41568;SDS011;27283;52.504;13.358;2023-04-25T16:17:33;6.22;;;1.80;;
41568;SDS011;27283;52.504;13.358;2023-04-25T16:20:10;6.95;;;2.35;;
41568;SDS011;27283;52.504;13.358;2023-04-25T16:22:43;4.78;;;1.60;;
41568;SDS011;27283;52.504;13.358;2023-04-25T16:25:17;7.82;;;1.80;;
41568;SDS011;27283;52.504;13.358;2023-04-25T16:27:50;6.03;;;1.63;;
41568;SDS011;27283;52.504;13.358;2023-04-25T16:30:30;6.85;;;1.50;;
41568;SDS011;27283;52.504;13.358;2023-04-25T16:33:04;6.53;;;1.70;;
41568;SDS011;27283;52.504;13.358;2023-04-25T16:35:37;4.55;;;1.50;;
41568;SDS011;27283;52.504;13.358;2023-04-25T16:38:11;7.80;;;1.75;;
41568;SDS011;27283;52.504;13.358;2023-04-25T16:40:44;7.28;;;1.60;;
41568;SDS011;27283;52.504;13.358;2023-04-25T16:43:18;6.65;;;1.70;;
41568;SDS011;27283;52.504;13.358;2023-04-25T16:45:54;4.20;;;1.60;;
41568;SDS011;27283;52.504;13.358;2023-04-25T16:48:28;7.97;;;1.63;;
41568;SDS011;27283;52.504;13.358;2023-04-25T16:51:02;7.13;;;1.63;;
41568;SDS011;27283;52.504;13.358;2023-04-25T16:53:36;8.25;;;1.75;;
41568;SDS011;27283;52.504;13.358;2023-04-25T16:56:12;5.65;;;1.55;;
41568;SDS011;27283;52.504;13.358;2023-04-25T16:58:45;4.38;;;1.65;;
41568;SDS011;27283;52.504;13.358;2023-04-25T17:01:21;7.95;;;1.98;;
41568;SDS011;27283;52.504;13.358;2023-04-25T17:03:56;7.40;;;1.70;;
41568;SDS011;27283;52.504;13.358;2023-04-25T17:06:29;6.25;;;1.50;;
41568;SDS011;27283;52.504;13.358;2023-04-25T17:09:05;10.13;;;1.98;;
41568;SDS011;27283;52.504;13.358;2023-04-25T17:11:41;5.97;;;1.75;;
41568;SDS011;27283;52.504;13.358;2023-04-25T17:14:18;6.13;;;2.00;;
41568;SDS011;27283;52.504;13.358;2023-04-25T17:17:09;7.45;;;1.60;;
41568;SDS011;27283;52.504;13.358;2023-04-25T17:19:44;2.70;;;1.38;;
41568;SDS011;27283;52.504;13.358;2023-04-25T17:22:16;7.40;;;1.63;;
41568;SDS011;27283;52.504;13.358;2023-04-25T17:24:52;5.97;;;1.85;;
41568;SDS011;27283;52.504;13.358;2023-04-25T17:27:24;6.05;;;1.80;;
41568;SDS011;27283;52.504;13.358;2023-04-25T17:30:01;5.38;;;1.52;;
41568;SDS011;27283;52.504;13.358;2023-04-25T17:32:46;5.82;;;1.70;;
41568;SDS011;27283;52.504;13.358;2023-04-25T17:35:21;6.65;;;1.50;;
41568;SDS011;27283;52.504;13.358;2023-04-25T17:37:54;9.07;;;1.70;;
41568;SDS011;27283;52.504;13.358;2023-04-25T17:40:27;6.85;;;1.75;;
41568;SDS011;27283;52.504;13.358;2023-04-25T17:43:00;5.18;;;2.03;;
41568;SDS011;27283;52.504;13.358;2023-04-25T17:45:32;10.25;;;2.20;;
41568;SDS011;27283;52.504;13.358;2023-04-25T17:48:07;7.03;;;1.98;;
41568;SDS011;27283;52.504;13.358;2023-04-25T17:50:40;8.05;;;2.40;;
41568;SDS011;27283;52.504;13.358;2023-04-25T17:53:13;8.80;;;2.03;;
41568;SDS011;27283;52.504;13.358;2023-04-25T17:55:46;6.38;;;2.00;;
41568;SDS011;27283;52.504;13.358;2023-04-25T17:58:18;10.02;;;2.05;;
41568;SDS011;27283;52.504;13.358;2023-04-25T18:00:52;7.22;;;2.05;;
41568;SDS011;27283;52.504;13.358;2023-04-25T18:03:28;8.05;;;1.98;;
41568;SDS011;27283;52.504;13.358;2023-04-25T18:06:02;8.68;;;2.17;;
41568;SDS011;27283;52.504;13.358;2023-04-25T18:08:34;10.20;;;2.15;;
41568;SDS011;27283;52.504;13.358;2023-04-25T18:14:22;9.02;;;2.00;;
41568;SDS011;27283;52.504;13.358;2023-04-25T18:16:55;8.00;;;2.08;;
41568;SDS011;27283;52.504;13.358;2023-04-25T18:19:31;6.40;;;1.80;;
41568;SDS011;27283;52.504;13.358;2023-04-25T18:22:05;11.18;;;2.20;;
41568;SDS011;27283;52.504;13.358;2023-04-25T18:24:41;11.23;;;2.38;;
41568;SDS011;27283;52.504;13.358;2023-04-25T18:27:16;6.78;;;1.92;;
41568;SDS011;27283;52.504;13.358;2023-04-25T18:29:51;6.68;;;1.85;;
41568;SDS011;27283;52.504;13.358;2023-04-25T18:32:26;10.75;;;2.00;;
41568;SDS011;27283;52.504;13.358;2023-04-25T18:35:01;7.65;;;2.20;;
41568;SDS011;27283;52.504;13.358;2023-04-25T18:37:35;9.38;;;2.22;;
41568;SDS011;27283;52.504;13.358;2023-04-25T18:40:09;6.95;;;2.20;;
41568;SDS011;27283;52.504;13.358;2023-04-25T18:42:46;10.23;;;2.38;;
41568;SDS011;27283;52.504;13.358;2023-04-25T18:45:19;8.85;;;2.30;;
41568;SDS011;27283;52.504;13.358;2023-04-25T18:47:52;9.07;;;2.22;;
41568;SDS011;27283;52.504;13.358;2023-04-25T18:50:35;10.40;;;2.50;;
41568;SDS011;27283;52.504;13.358;2023-04-25T18:53:14;7.55;;;2.70;;
41568;SDS011;27283;52.504;13.358;2023-04-25T18:55:46;7.70;;;2.15;;
41568;SDS011;27283;52.504;13.358;2023-04-25T18:58:19;9.63;;;2.13;;
41568;SDS011;27283;52.504;13.358;2023-04-25T19:00:59;7.85;;;2.35;;
41568;SDS011;27283;52.504;13.358;2023-04-25T19:03:38;7.72;;;2.10;;
41568;SDS011;27283;52.504;13.358;2023-04-25T19:06:15;10.80;;;2.30;;
41568;SDS011;27283;52.504;13.358;2023-04-25T19:08:51;9.23;;;2.85;;
41568;SDS011;27283;52.504;13.358;2023-04-25T19:11:23;7.43;;;2.58;;
41568;SDS011;27283;52.504;13.358;2023-04-25T19:13:57;10.45;;;2.55;;
41568;SDS011;27283;52.504;13.358;2023-04-25T19:16:35;9.75;;;2.22;;
41568;SDS011;27283;52.504;13.358;2023-04-25T19:19:10;9.50;;;2.33;;
41568;SDS011;27283;52.504;13.358;2023-04-25T19:21:50;8.15;;;2.25;;
41568;SDS011;27283;52.504;13.358;2023-04-25T19:24:23;6.43;;;2.00;;
41568;SDS011;27283;52.504;13.358;2023-04-25T19:26:56;8.77;;;2.60;;
41568;SDS011;27283;52.504;13.358;2023-04-25T19:29:29;8.70;;;1.95;;
41568;SDS011;27283;52.504;13.358;2023-04-25T19:32:06;7.22;;;1.92;;
41568;SDS011;27283;52.504;13.358;2023-04-25T19:34:42;7.05;;;2.25;;
41568;SDS011;27283;52.504;13.358;2023-04-25T19:37:19;8.18;;;2.20;;
41568;SDS011;27283;52.504;13.358;2023-04-25T19:39:53;7.43;;;2.00;;
41568;SDS011;27283;52.504;13.358;2023-04-25T19:42:25;4.20;;;1.70;;
41568;SDS011;27283;52.504;13.358;2023-04-25T19:44:58;8.95;;;2.15;;
41568;SDS011;27283;52.504;13.358;2023-04-25T19:47:31;10.32;;;2.00;;
41568;SDS011;27283;52.504;13.358;2023-04-25T19:50:06;8.38;;;2.13;;
41568;SDS011;27283;52.504;13.358;2023-04-25T19:52:43;11.60;;;2.30;;
41568;SDS011;27283;52.504;13.358;2023-04-25T19:55:15;7.20;;;2.25;;
41568;SDS011;27283;52.504;13.358;2023-04-25T19:57:49;10.65;;;2.22;;
41568;SDS011;27283;52.504;13.358;2023-04-25T20:00:24;9.38;;;2.00;;
41568;SDS011;27283;52.504;13.358;2023-04-25T20:03:00;5.30;;;2.15;;
41568;SDS011;27283;52.504;13.358;2023-04-25T20:05:33;6.63;;;2.05;;
41568;SDS011;27283;52.504;13.358;2023-04-25T20:08:09;8.10;;;2.25;;
41568;SDS011;27283;52.504;13.358;2023-04-25T20:10:45;6.90;;;2.25;;
41568;SDS011;27283;52.504;13.358;2023-04-25T20:13:25;9.88;;;2.45;;
41568;SDS011;27283;52.504;13.358;2023-04-25T20:15:59;12.90;;;2.55;;
41568;SDS011;27283;52.504;13.358;2023-04-25T20:18:33;7.82;;;2.67;;
41568;SDS011;27283;52.504;13.358;2023-04-25T20:21:06;7.88;;;2.38;;
41568;SDS011;27283;52.504;13.358;2023-04-25T20:23:43;9.43;;;2.40;;